Latest Weather Observations for Wilcannia Airport

IDN60801

Issued at 11:33 pm EDT Saturday 13 February 2016 (issued every 30 minutes, with the page automatically refreshed every 10 minutes)

About weather observations | Map of weather stations | Latest weather observations for NSW | Other Formats
Station Details ID: 046012 Name: WILCANNIA AERODROME AWS Lat: -31.52 Lon: 143.38 Height: 94.3 m
Data from the previous 72 hours. | See also: Recent months at Wilcannia Airport
Date/Time
EDT
Temp
°C
App
Temp
°C
Dew
Point
Rel
Hum
%
Delta-T
°C
Wind Press
QNH
hPa
Press
MSL
hPa
Rain
since 9 am
mm
Dir
 
Spd
km/h
Gust
km/h
Spd
kts
Gust
kts
13/11:30pm 27.1 23.0 -2.7 14 13.4 S 9 11 5 6 1007.7 1007.1 0.0
13/11:00pm 28.7 24.2 -3.5 12 14.4 S 11 11 6 6 1007.8 1007.2 0.0
13/10:30pm 30.6 25.7 -3.2 11 15.4 S 13 13 7 7 1007.8 1007.2 0.0
13/10:00pm 31.2 27.3 -1.5 12 15.4 S 9 11 5 6 1007.7 1007.1 0.0
13/09:30pm 32.0 27.6 -2.1 11 16.0 SSW 11 13 6 7 1007.5 1006.9 0.0
13/09:00pm 33.5 29.1 -2.3 10 17.0 SSW 11 13 6 7 1007.2 1006.6 0.0
13/08:30pm 35.9 31.6 -1.9 9 18.3 SSW 11 15 6 8 1006.9 1006.3 0.0
13/08:00pm 38.8 34.2 -1.3 8 20.0 S 13 19 7 10 1006.7 1006.1 0.0
13/07:30pm 40.0 33.9 -2.3 7 20.9 S 20 32 11 17 1006.4 1005.8 0.0
13/07:00pm 40.9 34.5 -1.6 7 21.4 S 22 30 12 16 1006.2 1005.6 0.0
13/06:30pm 41.4 36.1 -3.4 6 21.9 SSE 15 28 8 15 1006.1 1005.5 0.0
13/06:00pm 41.8 36.2 -3.1 6 22.2 S 17 24 9 13 1006.2 1005.6 0.0
13/05:30pm 42.1 36.1 -2.9 6 22.3 SSW 19 35 10 19 1006.3 1005.7 0.0
13/05:00pm 42.2 36.6 -2.8 6 22.4 S 17 28 9 15 1006.4 1005.8 0.0
13/04:30pm 42.6 36.8 -0.4 7 22.2 SSW 20 32 11 17 1006.6 1006.0 0.0
13/04:00pm 42.5 36.8 -0.5 7 22.2 SSE 19 30 10 16 1006.9 1006.3 0.0
13/03:30pm 42.3 36.6 -0.6 7 22.0 SSW 19 33 10 18 1007.2 1006.6 0.0
13/03:00pm 42.3 36.3 1.2 8 21.7 SW 22 37 12 20 1007.5 1006.9 0.0
13/02:30pm 41.6 37.3 0.7 8 21.3 WSW 13 22 7 12 1008.0 1007.4 0.0
13/02:00pm 41.3 36.4 2.1 9 20.9 W 17 30 9 16 1008.4 1007.8 0.0
13/01:30pm 40.6 34.3 1.6 9 20.5 WSW 24 35 13 19 1008.9 1008.3 0.0
13/01:00pm 40.6 36.6 3.1 10 20.2 W 13 28 7 15 1009.3 1008.7 0.0
13/12:30pm 40.3 35.5 2.8 10 20.0 W 17 26 9 14 1009.7 1009.1 0.0
13/12:00pm 39.0 35.6 1.9 10 19.4 WNW 9 20 5 11 1010.0 1009.5 0.0
13/11:30am 38.1 34.4 2.5 11 18.7 NW 11 19 6 10 1010.3 1009.8 0.0
13/11:00am 37.1 33.1 3.0 12 18.0 WNW 13 20 7 11 1010.5 1010.0 0.0
13/10:30am 35.0 31.7 2.5 13 16.8 WNW 9 15 5 8 1010.7 1010.2 0.0
13/10:00am 34.0 31.1 2.8 14 16.1 NW 7 13 4 7 1010.9 1010.4 0.0
13/09:30am 31.8 29.2 1.0 14 15.2 SSE 4 9 2 5 1010.9 1010.4 0.0
13/09:00am 30.0 27.0 0.6 15 14.3 ESE 6 9 3 5 1010.8 1010.3 0.0
13/08:30am 28.3 26.5 0.9 17 13.2 CALM 0 0 0 0 1010.6 1010.1 0.0
13/08:00am 24.4 22.9 3.1 25 10.4 CALM 0 2 0 1 1010.3 1009.8 0.0
13/07:30am 20.9 18.0 2.7 30 8.6 SW 7 11 4 6 1010.1 1009.6 0.0
13/07:00am 19.4 16.3 1.4 30 8.2 SSW 7 7 4 4 1009.7 1009.1 0.0
13/06:30am 21.0 17.6 1.8 28 8.9 SSW 9 11 5 6 1009.3 1008.7 0.0
13/06:00am 21.9 17.8 2.1 27 9.3 SW 13 15 7 8 1009.2 1008.6 0.0
13/05:30am 21.1 18.1 1.9 28 8.9 SSW 7 11 4 6 1009.0 1008.4 0.0
13/05:00am 22.1 19.1 1.7 26 9.5 SSW 7 9 4 5 1008.9 1008.3 0.0
13/04:30am 22.1 19.1 1.7 26 9.5 SSE 7 9 4 5 1009.0 1008.4 0.0
13/04:00am 21.8 18.0 1.5 26 9.4 SE 11 13 6 7 1009.1 1008.5 0.0
13/03:30am 22.4 19.4 2.0 26 9.6 S 7 9 4 5 1009.1 1008.5 0.0
13/03:00am 23.6 20.8 3.0 26 10.0 SE 7 7 4 4 1009.2 1008.6 0.0
13/02:30am 24.2 20.5 2.4 24 10.5 SE 11 11 6 6 1009.4 1008.8 0.0
13/02:00am 25.8 21.8 3.1 23 11.2 S 13 15 7 8 1009.4 1008.8 0.0
13/01:30am 24.9 21.6 2.4 23 10.9 NE 9 17 5 9 1009.4 1008.8 0.0
13/01:00am 25.6 21.9 2.3 22 11.3 NNE 11 11 6 6 1009.4 1008.8 0.0
13/12:30am 27.4 23.5 3.2 21 12.1 ENE 13 15 7 8 1009.5 1008.9 0.0
13/12:00am 26.2 22.4 1.5 20 11.9 E 11 13 6 7 1009.5 1008.9 0.0
 
Date/Time
EDT
Temp
°C
App
Temp
°C
Dew
Point
Rel
Hum
%
Delta-T
°C
Wind Press
QNH
hPa
Press
MSL
hPa
Rain
since 9 am
mm
Dir
 
Spd
km/h
Gust
km/h
Spd
kts
Gust
kts
12/11:30pm 28.3 24.6 2.5 19 12.8 ESE 11 13 6 7 1009.6 1009.0 0.0
12/11:00pm 28.7 24.8 1.3 17 13.3 ESE 11 13 6 7 1009.7 1009.1 0.0
12/10:30pm 30.9 27.2 2.2 16 14.4 SSE 11 13 6 7 1009.6 1009.0 0.0
12/10:00pm 31.6 27.6 2.7 16 14.7 SSE 13 15 7 8 1009.4 1008.8 0.0
12/09:30pm 33.1 28.8 3.0 15 15.5 S 15 17 8 9 1009.2 1008.6 0.0
12/09:00pm 33.0 29.0 2.9 15 15.5 S 13 13 7 7 1008.9 1008.3 0.0
12/08:30pm 34.5 31.3 3.1 14 16.3 SSE 9 11 5 6 1008.6 1008.0 0.0
12/08:00pm 36.9 33.9 4.0 13 17.6 SSE 9 15 5 8 1008.3 1007.7 0.0
12/07:30pm 37.6 34.1 3.4 12 18.2 S 11 17 6 9 1008.1 1007.5 0.0
12/07:00pm 38.6 35.6 4.1 12 18.7 WNW 9 15 5 8 1008.0 1007.4 0.0
12/06:30pm 38.3 35.3 3.9 12 18.5 SW 9 19 5 10 1008.1 1007.5 0.0
12/06:00pm 38.3 35.3 3.9 12 18.5 WSW 9 13 5 7 1008.1 1007.5 0.0
12/05:30pm 39.5 35.9 4.8 12 19.0 WSW 13 20 7 11 1008.2 1007.6 0.0
12/05:00pm 38.9 34.2 3.1 11 19.1 SSE 17 28 9 15 1008.3 1007.7 0.0
12/04:30pm 40.7 37.0 4.5 11 19.9 W 13 22 7 12 1008.6 1008.0 0.0
12/04:00pm 39.7 36.5 5.0 12 19.1 NW 11 20 6 11 1009.0 1008.4 0.0
12/03:30pm 39.9 36.3 5.1 12 19.2 SE 13 24 7 13 1009.4 1008.8 0.0
12/03:00pm 38.8 35.7 5.4 13 18.4 N 11 20 6 11 1009.8 1009.3 0.0
12/02:30pm 39.0 35.5 5.6 13 18.5 SW 13 20 7 11 1010.3 1009.8 0.0
12/02:00pm 38.6 35.3 6.3 14 18.0 NNW 13 22 7 12 1010.6 1010.1 0.0
12/01:30pm 37.9 34.5 5.8 14 17.7 NW 13 20 7 11 1010.9 1010.4 0.0
12/01:00pm 37.2 33.9 6.3 15 17.1 N 13 20 7 11 1011.4 1010.9 0.0
12/12:30pm 36.0 32.7 6.2 16 16.4 N 13 19 7 10 1011.8 1011.3 0.0
12/12:00pm 36.0 32.7 6.2 16 16.4 N 13 24 7 13 1012.1 1011.6 0.0
12/11:30am 34.7 31.5 8.4 20 14.9 N 15 24 8 13 1012.5 1012.0 0.0
12/11:00am 33.6 30.4 8.3 21 14.2 NNE 15 28 8 15 1012.9 1012.3 0.0
12/10:30am 32.6 29.5 8.8 23 13.4 NE 15 22 8 12 1013.1 1012.5 0.0
12/10:00am 31.0 27.6 9.3 26 12.2 NE 17 22 9 12 1013.3 1012.7 0.0
12/09:30am 29.6 26.1 8.6 27 11.6 NE 17 28 9 15 1013.3 1012.7 0.0
12/09:00am 29.1 27.6 9.3 29 11.1 E 7 11 4 6 1013.0 1012.4 0.0
12/08:30am 26.6 25.1 9.0 33 9.7 SE 7 11 4 6 1012.6 1012.1 0.0
12/08:00am 25.1 24.4 10.2 39 8.3 SE 4 7 2 4 1012.2 1011.7 0.0
12/07:30am 21.3 19.9 8.9 45 6.6 SSE 6 9 3 5 1011.8 1011.3 0.0
12/07:00am 20.4 18.5 7.7 44 6.6 SSE 7 9 4 5 1011.3 1010.8 0.0
12/06:30am 20.4 17.9 8.1 45 6.4 S 11 13 6 7 1010.9 1010.4 0.0
12/06:00am 20.2 17.9 7.6 44 6.5 S 9 11 5 6 1010.7 1010.2 0.0
12/05:30am 20.9 18.6 7.5 42 6.9 SSW 9 11 5 6 1010.6 1010.1 0.0
12/05:00am 21.5 19.2 7.3 40 7.4 WSW 9 13 5 7 1010.5 1010.0 0.0
12/04:30am 21.8 20.1 7.6 40 7.4 E 6 6 3 3 1010.3 1009.8 0.0
12/04:00am 22.3 20.2 8.1 40 7.5 E 9 13 5 7 1010.4 1009.9 0.0
12/03:30am 23.0 20.4 7.9 38 8.0 E 11 11 6 6 1010.6 1010.1 0.0
12/03:00am 24.0 21.1 8.0 36 8.5 E 13 15 7 8 1010.6 1010.1 0.0
12/02:30am 24.6 22.0 7.7 34 9.0 ENE 11 13 6 7 1010.7 1010.2 0.0
12/02:00am 25.7 23.1 7.8 32 9.6 ENE 11 13 6 7 1010.8 1010.3 0.0
12/01:30am 27.5 24.3 8.4 30 10.4 NE 15 19 8 10 1011.0 1010.5 0.0
12/01:00am 28.4 24.4 8.1 28 11.1 ENE 19 24 10 13 1011.3 1010.8 0.0
12/12:30am 29.5 23.8 8.5 27 11.6 ENE 28 39 15 21 1011.3 1010.8 0.0
12/12:00am 30.1 25.2 8.5 26 12.0 E 24 32 13 17 1011.2 1010.7 0.0
 
Date/Time
EDT
Temp
°C
App
Temp
°C
Dew
Point
Rel
Hum
%
Delta-T
°C
Wind Press
QNH
hPa
Press
MSL
hPa
Rain
since 9 am
mm
Dir
 
Spd
km/h
Gust
km/h
Spd
kts
Gust
kts
11/11:30pm 29.8 26.2 8.2 26 11.9 ESE 17 20 9 11 1010.9 1010.4 0.0
11/11:00pm 30.7 26.2 5.9 21 13.2 ESE 19 24 10 13 1010.6 1010.1 0.0
11/10:30pm 30.0 25.8 1.5 16 14.0 SSE 13 17 7 9 1010.1 1009.6 0.0
11/10:00pm 30.6 26.3 1.0 15 14.5 SSE 13 15 7 8 1009.8 1009.3 0.0
11/09:30pm 30.7 26.8 1.1 15 14.5 S 11 13 6 7 1009.4 1008.8 0.0
11/09:00pm 32.9 28.7 1.9 14 15.7 S 13 17 7 9 1009.0 1008.4 0.0
11/08:30pm 34.3 30.9 2.0 13 16.5 S 9 11 5 6 1008.7 1008.1 0.0
11/08:00pm 36.6 32.9 2.6 12 17.8 S 11 15 6 8 1008.3 1007.7 0.0
11/07:30pm 38.0 34.7 2.5 11 18.6 W 9 13 5 7 1007.9 1007.3 0.0
11/07:00pm 38.7 35.9 3.0 11 19.0 SW 7 15 4 8 1007.9 1007.3 0.0
11/06:30pm 38.7 35.1 3.0 11 19.0 S 11 19 6 10 1007.8 1007.2 0.0
11/06:00pm 38.4 34.4 2.8 11 18.9 SE 13 24 7 13 1007.8 1007.2 0.0
11/05:30pm 39.3 35.0 3.4 11 19.2 SSW 15 26 8 14 1007.9 1007.3 0.0
11/05:00pm 39.3 35.8 3.4 11 19.3 S 11 22 6 12 1008.0 1007.4 0.0
11/04:30pm 38.5 34.5 2.8 11 18.9 W 13 24 7 13 1008.1 1007.5 0.0
11/04:00pm 37.9 34.8 3.6 12 18.3 W 9 20 5 11 1008.5 1007.9 0.0
11/03:30pm 38.3 34.9 3.9 12 18.5 N 11 17 6 9 1008.9 1008.3 0.0
11/03:00pm 37.8 33.4 4.7 13 18.0 NNW 17 22 9 12 1009.3 1008.7 0.0
11/02:30pm 35.4 28.9 4.8 15 16.4 NNE 28 48 15 26 1009.6 1009.0 0.0
11/02:24pm 34.0 27.9 4.6 16 15.6 NNE 26 48 14 26 1009.7 1009.1 0.0
11/02:00pm 32.1 28.1 8.4 23 13.3 NNW 19 26 10 14 1010.8 1010.3 0.0
11/01:30pm 33.7 29.4 3.5 15 15.7 WNW 15 19 8 10 1011.3 1010.8 0.0
11/01:00pm 34.0 30.9 3.7 15 15.9 W 9 13 5 7 1011.1 1010.6 0.0
11/12:30pm 32.9 28.9 2.9 15 15.4 SW 13 17 7 9 1011.3 1010.8 0.0
11/12:00pm 32.3 27.6 3.3 16 14.9 SW 17 20 9 11 1011.6 1011.1 0.0
11/11:30am 33.9 29.7 3.7 15 15.8 WSW 15 20 8 11 1011.7 1011.2 0.0
11/11:00am 34.8 29.6 3.4 14 16.4 W 20 28 11 15 1011.8 1011.3 0.0
11/10:30am 31.8 27.8 2.9 16 14.7 WNW 13 17 7 9 1011.8 1011.3 0.0
11/10:00am 31.0 27.7 2.3 16 14.4 NW 9 13 5 7 1011.6 1011.1 0.0
11/09:30am 30.4 27.7 2.6 17 14.0 ESE 6 9 3 5 1011.5 1011.0 0.0
11/09:00am 28.7 27.3 3.5 20 12.7 CALM 0 0 0 0 1011.2 1010.7 0.0
11/08:30am 27.3 25.9 3.7 22 11.9 CALM 0 0 0 0 1010.8 1010.3 0.0
11/08:00am 25.5 23.0 3.5 24 10.9 E 6 7 3 4 1010.6 1010.1 0.0
11/07:30am 24.5 22.2 2.6 24 10.6 ESE 4 9 2 5 1010.2 1009.7 0.0
11/07:00am 25.2 23.3 2.6 23 11.0 SE 2 7 1 4 1009.8 1009.3 0.0
11/06:30am 26.0 23.0 2.0 21 11.6 SE 7 9 4 5 1009.5 1008.9 0.0
11/06:00am 27.3 22.8 2.4 20 12.2 SE 15 19 8 10 1009.2 1008.6 0.0
11/05:30am 27.5 23.5 2.6 20 12.3 SE 13 17 7 9 1009.0 1008.4 0.0
11/05:00am 28.0 23.8 1.5 18 12.9 SE 13 17 7 9 1008.9 1008.3 0.0
11/04:30am 28.7 24.4 1.3 17 13.3 SE 13 19 7 10 1008.8 1008.2 0.0
11/04:00am 29.2 24.6 1.7 17 13.5 SE 15 19 8 10 1008.9 1008.3 0.0
11/03:30am 29.5 25.3 1.9 17 13.6 SE 13 19 7 10 1009.0 1008.4 0.0
11/03:00am 29.9 25.3 1.4 16 14.0 SE 15 19 8 10 1009.1 1008.5 0.0
11/02:30am 30.7 25.8 2.0 16 14.3 SE 17 24 9 13 1009.3 1008.7 0.0
11/02:00am 31.5 26.2 1.8 15 14.9 SE 19 24 10 13 1009.5 1008.9 0.0
11/01:30am 32.2 26.8 1.3 14 15.4 SE 19 26 10 14 1009.7 1009.1 0.0
11/01:00am 32.2 27.7 2.3 15 15.1 SSE 15 24 8 13 1010.0 1009.5 0.0
11/12:30am 30.4 27.4 1.8 16 14.2 N 7 13 4 7 1009.7 1009.1 0.0
11/12:00am 30.5 27.1 1.9 16 14.2 N 9 13 5 7 1009.5 1008.9 0.0

Other Formats:

Comma delimited format used in spreadsheet applications
http://www.bom.gov.au/fwo/IDN60801/IDN60801.95695.axf

JavaScript Object Notation format (JSON) in row-major order
http://www.bom.gov.au/fwo/IDN60801/IDN60801.95695.json